createdAt,value
2018-06-04T00:01:26.182Z,22.2
2018-06-04T00:11:24.913Z,24.1
2018-06-04T00:21:25.130Z,24.5
2018-06-04T00:31:25.154Z,25.2
2018-06-04T00:41:25.485Z,23.5
2018-06-04T00:51:28.005Z,25.0
2018-06-04T01:01:26.732Z,24.6
2018-06-04T01:11:26.656Z,25.3
2018-06-04T01:21:26.511Z,21.2
2018-06-04T01:31:28.787Z,24.2
2018-06-04T01:41:26.644Z,25.6
2018-06-04T01:51:25.830Z,25.7
2018-06-04T02:01:26.596Z,24.4
2018-06-04T02:11:27.659Z,26.4
2018-06-04T02:21:25.832Z,24.7
2018-06-04T02:31:25.793Z,24.3
2018-06-04T02:41:26.066Z,22.9
2018-06-04T02:51:25.485Z,24.8
2018-06-04T03:01:26.528Z,22.9
2018-06-04T03:11:25.560Z,25.6
2018-06-04T03:21:27.415Z,26.6
2018-06-04T03:31:26.322Z,25.9
2018-06-04T03:41:25.361Z,25.7
2018-06-04T03:51:25.208Z,27.5
2018-06-04T04:01:25.181Z,26.7
2018-06-04T04:11:29.150Z,25.9
2018-06-04T04:21:26.079Z,24.7
2018-06-04T04:31:26.461Z,25.4
2018-06-04T04:41:26.366Z,22.9
2018-06-04T04:51:25.349Z,22.2
2018-06-04T05:01:27.530Z,21.7
2018-06-04T05:11:26.213Z,22.3
2018-06-04T05:21:26.525Z,20.1
2018-06-04T05:33:53.757Z,20.4
2018-06-04T05:41:25.894Z,20.6
2018-06-04T05:51:26.816Z,19.8
2018-06-04T06:01:26.651Z,19.8
2018-06-04T06:11:25.803Z,18.5
2018-06-04T06:21:26.652Z,19.5
2018-06-04T06:31:27.096Z,19.7
2018-06-04T06:41:26.109Z,18.2
2018-06-04T06:51:27.023Z,17.7
2018-06-04T07:01:26.323Z,17.4
2018-06-04T07:11:25.649Z,17.4
2018-06-04T07:21:25.965Z,17.4
2018-06-04T07:31:24.862Z,15.2
2018-06-04T07:41:25.679Z,15.5
2018-06-04T07:51:26.476Z,16.6
2018-06-04T08:01:26.534Z,15.9
2018-06-04T08:11:25.748Z,16.6
2018-06-04T08:21:26.055Z,16.6
2018-06-04T08:31:25.818Z,15.8
2018-06-04T08:41:26.054Z,17.5
2018-06-04T08:51:25.806Z,16.6
2018-06-04T09:01:26.500Z,16.8
2018-06-04T09:11:25.274Z,16.5
2018-06-04T09:21:25.288Z,16.2
2018-06-04T09:31:25.598Z,15.7
2018-06-04T09:41:25.458Z,15.1
2018-06-04T09:51:25.280Z,15.5
2018-06-04T10:01:25.602Z,14.2
2018-06-04T10:11:26.233Z,15.0
2018-06-04T10:21:26.708Z,15.0
2018-06-04T10:31:27.792Z,15.3
2018-06-04T10:41:25.976Z,19.1
2018-06-04T10:51:27.089Z,16.4
2018-06-04T11:01:25.431Z,17.3
2018-06-04T11:11:25.279Z,18.1
2018-06-04T11:21:27.277Z,19.1
2018-06-04T11:31:25.275Z,17.9
2018-06-04T11:41:25.527Z,18.2
2018-06-04T11:51:25.550Z,17.0
2018-06-04T12:01:25.457Z,15.8
2018-06-04T12:11:26.038Z,15.1
2018-06-04T12:21:25.889Z,15.7
2018-06-04T12:31:27.193Z,13.6
2018-06-04T12:41:25.335Z,11.9
2018-06-04T12:51:25.065Z,13.3
2018-06-04T13:01:26.534Z,13.8
2018-06-04T13:11:25.607Z,14.1
2018-06-04T13:21:26.224Z,14.2
2018-06-04T13:31:25.266Z,12.3
2018-06-04T13:41:25.884Z,11.6
2018-06-04T13:51:25.688Z,11.8
2018-06-04T14:01:26.107Z,11.1
2018-06-04T14:11:25.561Z,11.5
2018-06-04T14:21:25.594Z,11.7
2018-06-04T14:31:27.950Z,11.2
2018-06-04T14:41:25.877Z,11.4
2018-06-04T14:51:25.223Z,8.7
2018-06-04T15:01:25.553Z,10.7
2018-06-04T15:11:25.798Z,9.8
2018-06-04T15:21:25.901Z,11.3
2018-06-04T15:31:26.062Z,11.0
2018-06-04T15:41:25.065Z,11.5
2018-06-04T15:51:26.265Z,11.8
2018-06-04T16:01:25.233Z,12.2
2018-06-04T16:11:25.729Z,11.8
2018-06-04T16:21:26.680Z,10.8
2018-06-04T16:31:25.638Z,10.1
2018-06-04T16:41:26.611Z,9.7
2018-06-04T16:51:25.650Z,10.6
2018-06-04T17:01:26.881Z,11.4
2018-06-04T17:11:29.094Z,11.5
2018-06-04T17:21:25.953Z,11.8
2018-06-04T17:31:25.096Z,11.3
2018-06-04T17:41:25.371Z,12.2
2018-06-04T17:51:25.393Z,11.2
2018-06-04T18:01:25.760Z,12.5
2018-06-04T18:11:28.397Z,13.6
2018-06-04T18:21:27.402Z,14.1
2018-06-04T18:31:26.401Z,14.1
2018-06-04T18:41:25.397Z,12.8
2018-06-04T18:51:25.974Z,12.5
2018-06-04T19:01:26.267Z,12.7
2018-06-04T19:11:25.420Z,13.7
2018-06-04T19:21:26.157Z,13.4
2018-06-04T19:31:25.356Z,13.1
2018-06-04T19:41:29.152Z,14.2
2018-06-04T19:51:25.084Z,13.1
2018-06-04T20:01:25.665Z,14.2
2018-06-04T20:11:27.636Z,14.1
2018-06-04T20:21:27.232Z,15.1
2018-06-04T20:31:25.110Z,15.1
2018-06-04T20:41:26.222Z,16.4
2018-06-04T20:51:25.123Z,19.2
2018-06-04T21:01:25.251Z,19.0
2018-06-04T21:11:25.413Z,20.0
2018-06-04T21:21:25.519Z,20.4
2018-06-04T21:31:29.026Z,21.6
2018-06-04T21:41:26.489Z,22.3
2018-06-04T21:51:27.562Z,21.5
2018-06-04T22:01:26.380Z,21.0
2018-06-04T22:11:28.202Z,22.8
2018-06-04T22:21:25.294Z,22.3
2018-06-04T22:31:26.313Z,22.2
2018-06-04T22:41:25.167Z,22.7
2018-06-04T22:51:25.736Z,23.2
2018-06-04T23:01:25.540Z,22.9
2018-06-04T23:11:26.050Z,22.7
2018-06-04T23:21:25.775Z,24.0
2018-06-04T23:31:26.611Z,24.7
2018-06-04T23:41:26.044Z,24.9
2018-06-04T23:51:27.327Z,26.5
